sensor_id;sensor_type;location;lat;lon;timestamp;P1;durP1;ratioP1;P2;durP2;ratioP2
72060;SDS011;59925;52.136;5.420;2023-04-25T00:01:35;15.43;;;2.43;;
72060;SDS011;59925;52.136;5.420;2023-04-25T00:04:02;9.30;;;1.90;;
72060;SDS011;59925;52.136;5.420;2023-04-25T00:06:29;13.60;;;2.10;;
72060;SDS011;59925;52.136;5.420;2023-04-25T00:08:57;14.05;;;1.75;;
72060;SDS011;59925;52.136;5.420;2023-04-25T00:11:24;7.40;;;2.40;;
72060;SDS011;59925;52.136;5.420;2023-04-25T00:13:50;8.27;;;2.17;;
72060;SDS011;59925;52.136;5.420;2023-04-25T00:16:17;9.02;;;1.80;;
72060;SDS011;59925;52.136;5.420;2023-04-25T00:18:43;11.15;;;1.90;;
72060;SDS011;59925;52.136;5.420;2023-04-25T00:21:12;10.95;;;2.17;;
72060;SDS011;59925;52.136;5.420;2023-04-25T00:23:38;8.32;;;2.03;;
72060;SDS011;59925;52.136;5.420;2023-04-25T00:26:05;8.67;;;1.83;;
72060;SDS011;59925;52.136;5.420;2023-04-25T00:28:31;6.68;;;1.80;;
72060;SDS011;59925;52.136;5.420;2023-04-25T00:30:58;8.20;;;1.90;;
72060;SDS011;59925;52.136;5.420;2023-04-25T00:33:24;10.98;;;2.63;;
72060;SDS011;59925;52.136;5.420;2023-04-25T00:35:51;12.25;;;2.00;;
72060;SDS011;59925;52.136;5.420;2023-04-25T00:38:17;11.63;;;1.80;;
72060;SDS011;59925;52.136;5.420;2023-04-25T00:40:43;13.65;;;2.10;;
72060;SDS011;59925;52.136;5.420;2023-04-25T00:43:10;6.22;;;1.63;;
72060;SDS011;59925;52.136;5.420;2023-04-25T00:45:37;11.25;;;1.83;;
72060;SDS011;59925;52.136;5.420;2023-04-25T00:48:05;9.32;;;1.77;;
72060;SDS011;59925;52.136;5.420;2023-04-25T00:50:33;10.73;;;2.00;;
72060;SDS011;59925;52.136;5.420;2023-04-25T00:53:00;9.57;;;2.50;;
72060;SDS011;59925;52.136;5.420;2023-04-25T00:55:27;6.00;;;1.63;;
72060;SDS011;59925;52.136;5.420;2023-04-25T00:57:53;11.43;;;2.03;;
72060;SDS011;59925;52.136;5.420;2023-04-25T01:00:20;13.27;;;2.20;;
72060;SDS011;59925;52.136;5.420;2023-04-25T01:02:46;10.20;;;2.27;;
72060;SDS011;59925;52.136;5.420;2023-04-25T01:05:13;7.70;;;1.63;;
72060;SDS011;59925;52.136;5.420;2023-04-25T01:07:40;13.50;;;1.90;;
72060;SDS011;59925;52.136;5.420;2023-04-25T01:10:07;9.13;;;1.77;;
72060;SDS011;59925;52.136;5.420;2023-04-25T01:12:34;9.43;;;1.92;;
72060;SDS011;59925;52.136;5.420;2023-04-25T01:15:00;11.40;;;1.73;;
72060;SDS011;59925;52.136;5.420;2023-04-25T01:17:27;11.80;;;1.73;;
72060;SDS011;59925;52.136;5.420;2023-04-25T01:19:55;6.60;;;1.83;;
72060;SDS011;59925;52.136;5.420;2023-04-25T01:22:21;11.00;;;1.73;;
72060;SDS011;59925;52.136;5.420;2023-04-25T01:24:48;6.82;;;1.67;;
72060;SDS011;59925;52.136;5.420;2023-04-25T01:27:15;14.17;;;2.03;;
72060;SDS011;59925;52.136;5.420;2023-04-25T01:29:42;6.72;;;1.92;;
72060;SDS011;59925;52.136;5.420;2023-04-25T01:32:09;12.00;;;1.70;;
72060;SDS011;59925;52.136;5.420;2023-04-25T01:34:36;13.35;;;1.98;;
72060;SDS011;59925;52.136;5.420;2023-04-25T01:37:02;12.82;;;1.55;;
72060;SDS011;59925;52.136;5.420;2023-04-25T01:39:29;10.90;;;2.10;;
72060;SDS011;59925;52.136;5.420;2023-04-25T01:41:55;5.38;;;1.42;;
72060;SDS011;59925;52.136;5.420;2023-04-25T01:44:22;12.52;;;2.35;;
72060;SDS011;59925;52.136;5.420;2023-04-25T01:46:49;11.18;;;1.88;;
72060;SDS011;59925;52.136;5.420;2023-04-25T01:49:15;6.40;;;2.13;;
72060;SDS011;59925;52.136;5.420;2023-04-25T01:51:42;9.47;;;2.00;;
72060;SDS011;59925;52.136;5.420;2023-04-25T01:54:09;15.23;;;1.92;;
72060;SDS011;59925;52.136;5.420;2023-04-25T01:56:37;8.60;;;1.60;;
72060;SDS011;59925;52.136;5.420;2023-04-25T01:59:04;11.30;;;1.80;;
72060;SDS011;59925;52.136;5.420;2023-04-25T02:01:32;10.45;;;1.92;;
72060;SDS011;59925;52.136;5.420;2023-04-25T02:03:59;11.93;;;1.87;;
72060;SDS011;59925;52.136;5.420;2023-04-25T02:06:26;11.38;;;1.90;;
72060;SDS011;59925;52.136;5.420;2023-04-25T02:08:52;8.75;;;2.00;;
72060;SDS011;59925;52.136;5.420;2023-04-25T02:11:18;11.15;;;1.83;;
72060;SDS011;59925;52.136;5.420;2023-04-25T02:13:45;7.63;;;1.80;;
72060;SDS011;59925;52.136;5.420;2023-04-25T02:16:11;7.63;;;1.73;;
72060;SDS011;59925;52.136;5.420;2023-04-25T02:18:39;12.13;;;2.28;;
72060;SDS011;59925;52.136;5.420;2023-04-25T02:21:05;6.00;;;1.20;;
72060;SDS011;59925;52.136;5.420;2023-04-25T02:23:32;14.00;;;1.60;;
72060;SDS011;59925;52.136;5.420;2023-04-25T02:25:59;4.70;;;1.40;;
72060;SDS011;59925;52.136;5.420;2023-04-25T02:28:25;7.57;;;1.77;;
72060;SDS011;59925;52.136;5.420;2023-04-25T02:30:52;6.72;;;1.75;;
72060;SDS011;59925;52.136;5.420;2023-04-25T02:33:19;5.57;;;1.30;;
72060;SDS011;59925;52.136;5.420;2023-04-25T02:35:47;5.65;;;1.60;;
72060;SDS011;59925;52.136;5.420;2023-04-25T02:38:13;10.38;;;2.30;;
72060;SDS011;59925;52.136;5.420;2023-04-25T02:40:40;4.53;;;1.20;;
72060;SDS011;59925;52.136;5.420;2023-04-25T02:43:07;7.10;;;1.35;;
72060;SDS011;59925;52.136;5.420;2023-04-25T02:45:33;8.85;;;1.60;;
72060;SDS011;59925;52.136;5.420;2023-04-25T02:48:02;5.90;;;1.40;;
72060;SDS011;59925;52.136;5.420;2023-04-25T02:50:29;10.18;;;1.88;;
72060;SDS011;59925;52.136;5.420;2023-04-25T02:52:55;6.40;;;1.43;;
72060;SDS011;59925;52.136;5.420;2023-04-25T02:55:21;6.85;;;1.63;;
72060;SDS011;59925;52.136;5.420;2023-04-25T02:57:50;14.05;;;2.28;;
72060;SDS011;59925;52.136;5.420;2023-04-25T03:00:16;9.93;;;1.98;;
72060;SDS011;59925;52.136;5.420;2023-04-25T03:02:43;8.63;;;1.52;;
72060;SDS011;59925;52.136;5.420;2023-04-25T03:05:09;4.70;;;1.40;;
72060;SDS011;59925;52.136;5.420;2023-04-25T03:07:35;11.30;;;2.08;;
72060;SDS011;59925;52.136;5.420;2023-04-25T03:10:02;6.75;;;1.70;;
72060;SDS011;59925;52.136;5.420;2023-04-25T03:12:29;6.43;;;1.45;;
72060;SDS011;59925;52.136;5.420;2023-04-25T03:14:55;9.18;;;1.58;;
72060;SDS011;59925;52.136;5.420;2023-04-25T03:17:21;9.37;;;2.20;;
72060;SDS011;59925;52.136;5.420;2023-04-25T03:19:48;9.65;;;1.73;;
72060;SDS011;59925;52.136;5.420;2023-04-25T03:22:14;9.63;;;1.92;;
72060;SDS011;59925;52.136;5.420;2023-04-25T03:24:41;12.48;;;1.65;;
72060;SDS011;59925;52.136;5.420;2023-04-25T03:27:07;8.68;;;2.03;;
72060;SDS011;59925;52.136;5.420;2023-04-25T03:29:34;12.43;;;1.70;;
72060;SDS011;59925;52.136;5.420;2023-04-25T03:32:00;9.43;;;2.33;;
72060;SDS011;59925;52.136;5.420;2023-04-25T03:34:27;10.02;;;1.73;;
72060;SDS011;59925;52.136;5.420;2023-04-25T03:36:54;13.25;;;1.65;;
72060;SDS011;59925;52.136;5.420;2023-04-25T03:39:20;8.07;;;1.60;;
72060;SDS011;59925;52.136;5.420;2023-04-25T03:41:46;4.77;;;1.77;;
72060;SDS011;59925;52.136;5.420;2023-04-25T03:44:13;6.97;;;2.13;;
72060;SDS011;59925;52.136;5.420;2023-04-25T03:46:40;6.18;;;1.48;;
72060;SDS011;59925;52.136;5.420;2023-04-25T03:49:06;6.28;;;2.08;;
72060;SDS011;59925;52.136;5.420;2023-04-25T03:51:33;5.45;;;1.50;;
72060;SDS011;59925;52.136;5.420;2023-04-25T03:53:59;8.63;;;1.83;;
72060;SDS011;59925;52.136;5.420;2023-04-25T03:56:25;8.35;;;1.90;;
72060;SDS011;59925;52.136;5.420;2023-04-25T03:58:52;7.72;;;1.67;;
72060;SDS011;59925;52.136;5.420;2023-04-25T04:01:18;8.75;;;1.60;;
72060;SDS011;59925;52.136;5.420;2023-04-25T04:03:45;13.30;;;2.20;;
72060;SDS011;59925;52.136;5.420;2023-04-25T04:06:12;11.27;;;1.73;;
72060;SDS011;59925;52.136;5.420;2023-04-25T04:08:39;6.70;;;1.15;;
72060;SDS011;59925;52.136;5.420;2023-04-25T04:11:06;4.07;;;1.33;;
72060;SDS011;59925;52.136;5.420;2023-04-25T04:13:32;6.32;;;1.38;;
72060;SDS011;59925;52.136;5.420;2023-04-25T04:15:59;4.25;;;1.25;;
72060;SDS011;59925;52.136;5.420;2023-04-25T04:18:25;6.13;;;1.20;;
72060;SDS011;59925;52.136;5.420;2023-04-25T04:20:52;6.53;;;1.13;;
72060;SDS011;59925;52.136;5.420;2023-04-25T04:23:19;4.97;;;1.33;;
72060;SDS011;59925;52.136;5.420;2023-04-25T04:25:45;9.15;;;1.45;;
72060;SDS011;59925;52.136;5.420;2023-04-25T04:28:13;6.22;;;0.90;;
72060;SDS011;59925;52.136;5.420;2023-04-25T04:30:39;1.97;;;0.80;;
72060;SDS011;59925;52.136;5.420;2023-04-25T04:33:07;8.10;;;1.48;;
72060;SDS011;59925;52.136;5.420;2023-04-25T04:35:33;5.57;;;1.20;;
72060;SDS011;59925;52.136;5.420;2023-04-25T04:38:00;5.30;;;0.88;;
72060;SDS011;59925;52.136;5.420;2023-04-25T04:40:26;6.22;;;0.80;;
72060;SDS011;59925;52.136;5.420;2023-04-25T04:42:53;5.70;;;1.10;;
72060;SDS011;59925;52.136;5.420;2023-04-25T04:45:22;11.68;;;1.35;;
72060;SDS011;59925;52.136;5.420;2023-04-25T04:47:49;7.57;;;1.00;;
72060;SDS011;59925;52.136;5.420;2023-04-25T04:50:16;4.68;;;0.85;;
72060;SDS011;59925;52.136;5.420;2023-04-25T04:52:42;5.68;;;0.88;;
72060;SDS011;59925;52.136;5.420;2023-04-25T04:55:09;7.93;;;1.00;;
72060;SDS011;59925;52.136;5.420;2023-04-25T04:57:35;3.33;;;0.60;;
72060;SDS011;59925;52.136;5.420;2023-04-25T05:00:03;5.80;;;1.10;;
72060;SDS011;59925;52.136;5.420;2023-04-25T05:02:37;9.35;;;1.35;;
72060;SDS011;59925;52.136;5.420;2023-04-25T05:05:05;8.68;;;1.23;;
72060;SDS011;59925;52.136;5.420;2023-04-25T05:07:31;2.80;;;0.60;;
72060;SDS011;59925;52.136;5.420;2023-04-25T05:09:58;5.20;;;1.08;;
72060;SDS011;59925;52.136;5.420;2023-04-25T05:12:24;5.25;;;0.70;;
72060;SDS011;59925;52.136;5.420;2023-04-25T05:14:51;4.45;;;0.98;;
72060;SDS011;59925;52.136;5.420;2023-04-25T05:17:17;4.85;;;0.68;;
72060;SDS011;59925;52.136;5.420;2023-04-25T05:19:44;7.37;;;0.97;;
72060;SDS011;59925;52.136;5.420;2023-04-25T05:22:10;5.85;;;0.68;;
72060;SDS011;59925;52.136;5.420;2023-04-25T05:24:37;8.30;;;1.08;;
72060;SDS011;59925;52.136;5.420;2023-04-25T05:27:03;5.07;;;0.95;;
72060;SDS011;59925;52.136;5.420;2023-04-25T05:29:29;5.47;;;0.80;;
72060;SDS011;59925;52.136;5.420;2023-04-25T05:31:56;8.20;;;0.80;;
72060;SDS011;59925;52.136;5.420;2023-04-25T05:34:22;4.20;;;0.73;;
72060;SDS011;59925;52.136;5.420;2023-04-25T05:36:49;9.93;;;0.80;;
72060;SDS011;59925;52.136;5.420;2023-04-25T05:39:15;3.42;;;0.50;;
72060;SDS011;59925;52.136;5.420;2023-04-25T05:41:43;7.88;;;1.10;;
72060;SDS011;59925;52.136;5.420;2023-04-25T05:44:10;7.23;;;1.27;;
72060;SDS011;59925;52.136;5.420;2023-04-25T05:46:36;3.35;;;0.63;;
72060;SDS011;59925;52.136;5.420;2023-04-25T05:49:03;5.20;;;0.82;;
72060;SDS011;59925;52.136;5.420;2023-04-25T05:51:29;4.97;;;0.88;;
72060;SDS011;59925;52.136;5.420;2023-04-25T05:53:55;3.45;;;0.80;;
72060;SDS011;59925;52.136;5.420;2023-04-25T05:56:22;6.30;;;0.77;;
72060;SDS011;59925;52.136;5.420;2023-04-25T05:58:49;4.57;;;0.65;;
72060;SDS011;59925;52.136;5.420;2023-04-25T06:01:15;6.50;;;0.90;;
72060;SDS011;59925;52.136;5.420;2023-04-25T06:03:42;5.88;;;0.82;;
72060;SDS011;59925;52.136;5.420;2023-04-25T06:06:09;5.55;;;0.75;;
72060;SDS011;59925;52.136;5.420;2023-04-25T06:08:35;7.40;;;0.80;;
72060;SDS011;59925;52.136;5.420;2023-04-25T06:11:02;4.97;;;1.27;;
72060;SDS011;59925;52.136;5.420;2023-04-25T06:13:28;5.35;;;0.77;;
72060;SDS011;59925;52.136;5.420;2023-04-25T06:15:55;5.60;;;1.35;;
72060;SDS011;59925;52.136;5.420;2023-04-25T06:18:21;5.13;;;0.80;;
72060;SDS011;59925;52.136;5.420;2023-04-25T06:20:47;7.50;;;1.00;;
72060;SDS011;59925;52.136;5.420;2023-04-25T06:23:14;5.43;;;0.73;;
72060;SDS011;59925;52.136;5.420;2023-04-25T06:25:40;5.47;;;0.85;;
72060;SDS011;59925;52.136;5.420;2023-04-25T06:28:06;5.72;;;0.70;;
72060;SDS011;59925;52.136;5.420;2023-04-25T06:30:33;8.30;;;0.98;;
72060;SDS011;59925;52.136;5.420;2023-04-25T06:32:59;7.93;;;0.97;;
72060;SDS011;59925;52.136;5.420;2023-04-25T06:35:26;3.80;;;0.65;;
72060;SDS011;59925;52.136;5.420;2023-04-25T06:37:52;6.95;;;1.30;;
72060;SDS011;59925;52.136;5.420;2023-04-25T06:40:19;5.95;;;0.80;;
72060;SDS011;59925;52.136;5.420;2023-04-25T06:42:45;8.15;;;0.93;;
72060;SDS011;59925;52.136;5.420;2023-04-25T06:45:12;7.00;;;0.87;;
72060;SDS011;59925;52.136;5.420;2023-04-25T06:47:38;8.63;;;1.33;;
72060;SDS011;59925;52.136;5.420;2023-04-25T06:50:05;3.88;;;0.80;;
72060;SDS011;59925;52.136;5.420;2023-04-25T06:52:32;7.22;;;1.05;;
72060;SDS011;59925;52.136;5.420;2023-04-25T06:54:59;7.35;;;1.10;;
72060;SDS011;59925;52.136;5.420;2023-04-25T06:57:25;4.87;;;0.90;;
72060;SDS011;59925;52.136;5.420;2023-04-25T06:59:52;9.70;;;0.82;;
72060;SDS011;59925;52.136;5.420;2023-04-25T07:02:18;7.95;;;0.88;;
72060;SDS011;59925;52.136;5.420;2023-04-25T07:04:45;5.13;;;1.00;;
72060;SDS011;59925;52.136;5.420;2023-04-25T07:07:12;6.07;;;0.73;;
72060;SDS011;59925;52.136;5.420;2023-04-25T07:09:39;5.40;;;0.73;;
72060;SDS011;59925;52.136;5.420;2023-04-25T07:12:05;6.20;;;0.73;;
72060;SDS011;59925;52.136;5.420;2023-04-25T07:14:32;7.45;;;1.13;;
72060;SDS011;59925;52.136;5.420;2023-04-25T07:16:58;5.68;;;1.08;;
72060;SDS011;59925;52.136;5.420;2023-04-25T07:19:25;4.82;;;0.70;;
72060;SDS011;59925;52.136;5.420;2023-04-25T07:21:52;5.63;;;0.60;;
72060;SDS011;59925;52.136;5.420;2023-04-25T07:24:19;5.35;;;0.93;;
72060;SDS011;59925;52.136;5.420;2023-04-25T07:26:46;11.80;;;1.00;;
72060;SDS011;59925;52.136;5.420;2023-04-25T07:29:12;4.70;;;0.70;;
72060;SDS011;59925;52.136;5.420;2023-04-25T07:31:39;5.50;;;1.05;;
72060;SDS011;59925;52.136;5.420;2023-04-25T07:34:05;5.40;;;0.90;;
72060;SDS011;59925;52.136;5.420;2023-04-25T07:36:32;6.32;;;1.25;;
72060;SDS011;59925;52.136;5.420;2023-04-25T07:38:58;3.30;;;1.13;;
72060;SDS011;59925;52.136;5.420;2023-04-25T07:41:24;4.40;;;0.80;;
72060;SDS011;59925;52.136;5.420;2023-04-25T07:43:51;5.05;;;0.70;;
72060;SDS011;59925;52.136;5.420;2023-04-25T07:46:17;8.80;;;1.30;;
72060;SDS011;59925;52.136;5.420;2023-04-25T07:48:44;4.63;;;0.70;;
72060;SDS011;59925;52.136;5.420;2023-04-25T07:51:10;3.63;;;0.52;;
72060;SDS011;59925;52.136;5.420;2023-04-25T07:53:37;7.18;;;0.70;;
72060;SDS011;59925;52.136;5.420;2023-04-25T07:56:04;4.80;;;0.63;;
72060;SDS011;59925;52.136;5.420;2023-04-25T07:58:31;9.03;;;0.87;;
72060;SDS011;59925;52.136;5.420;2023-04-25T08:00:57;4.43;;;0.55;;
72060;SDS011;59925;52.136;5.420;2023-04-25T08:03:23;4.07;;;0.68;;
72060;SDS011;59925;52.136;5.420;2023-04-25T08:05:50;3.95;;;0.85;;
72060;SDS011;59925;52.136;5.420;2023-04-25T08:08:17;4.25;;;0.63;;
72060;SDS011;59925;52.136;5.420;2023-04-25T08:10:43;5.03;;;0.90;;
72060;SDS011;59925;52.136;5.420;2023-04-25T08:13:10;7.50;;;0.70;;
72060;SDS011;59925;52.136;5.420;2023-04-25T08:15:36;7.15;;;1.10;;
72060;SDS011;59925;52.136;5.420;2023-04-25T08:18:03;7.03;;;0.80;;
72060;SDS011;59925;52.136;5.420;2023-04-25T08:20:29;6.85;;;0.80;;
72060;SDS011;59925;52.136;5.420;2023-04-25T08:22:56;4.20;;;0.67;;
72060;SDS011;59925;52.136;5.420;2023-04-25T08:25:22;7.60;;;0.90;;
72060;SDS011;59925;52.136;5.420;2023-04-25T08:27:49;6.50;;;0.73;;
72060;SDS011;59925;52.136;5.420;2023-04-25T08:30:15;2.75;;;0.50;;
72060;SDS011;59925;52.136;5.420;2023-04-25T08:32:42;5.13;;;0.40;;
72060;SDS011;59925;52.136;5.420;2023-04-25T08:35:08;2.77;;;0.50;;
72060;SDS011;59925;52.136;5.420;2023-04-25T08:37:35;4.45;;;0.47;;
72060;SDS011;59925;52.136;5.420;2023-04-25T08:40:03;3.22;;;0.32;;
72060;SDS011;59925;52.136;5.420;2023-04-25T08:42:33;5.45;;;0.60;;
72060;SDS011;59925;52.136;5.420;2023-04-25T08:45:01;2.88;;;0.68;;
72060;SDS011;59925;52.136;5.420;2023-04-25T08:47:32;4.47;;;0.57;;
72060;SDS011;59925;52.136;5.420;2023-04-25T08:50:01;2.25;;;0.40;;
72060;SDS011;59925;52.136;5.420;2023-04-25T08:52:30;4.63;;;0.60;;
72060;SDS011;59925;52.136;5.420;2023-04-25T08:55:02;5.28;;;0.52;;
72060;SDS011;59925;52.136;5.420;2023-04-25T08:57:29;3.78;;;0.50;;
72060;SDS011;59925;52.136;5.420;2023-04-25T08:59:57;7.93;;;0.93;;
72060;SDS011;59925;52.136;5.420;2023-04-25T09:02:24;4.82;;;0.50;;
72060;SDS011;59925;52.136;5.420;2023-04-25T09:04:51;3.30;;;0.68;;
72060;SDS011;59925;52.136;5.420;2023-04-25T09:07:21;8.57;;;0.70;;
72060;SDS011;59925;52.136;5.420;2023-04-25T09:09:47;5.55;;;0.60;;
72060;SDS011;59925;52.136;5.420;2023-04-25T09:12:14;5.93;;;1.00;;
72060;SDS011;59925;52.136;5.420;2023-04-25T09:14:40;5.15;;;0.60;;
72060;SDS011;59925;52.136;5.420;2023-04-25T09:17:08;6.40;;;0.47;;
72060;SDS011;59925;52.136;5.420;2023-04-25T09:19:35;4.15;;;0.60;;
72060;SDS011;59925;52.136;5.420;2023-04-25T09:22:07;3.70;;;0.80;;
72060;SDS011;59925;52.136;5.420;2023-04-25T09:24:40;4.73;;;0.50;;
72060;SDS011;59925;52.136;5.420;2023-04-25T09:27:10;6.28;;;0.70;;
72060;SDS011;59925;52.136;5.420;2023-04-25T09:29:38;2.95;;;0.50;;
72060;SDS011;59925;52.136;5.420;2023-04-25T09:32:14;3.88;;;0.60;;
72060;SDS011;59925;52.136;5.420;2023-04-25T09:34:48;6.93;;;0.80;;
72060;SDS011;59925;52.136;5.420;2023-04-25T09:37:17;5.20;;;0.50;;
72060;SDS011;59925;52.136;5.420;2023-04-25T09:39:48;4.03;;;0.73;;
72060;SDS011;59925;52.136;5.420;2023-04-25T09:42:28;4.63;;;1.08;;
72060;SDS011;59925;52.136;5.420;2023-04-25T09:44:57;5.28;;;0.60;;
72060;SDS011;59925;52.136;5.420;2023-04-25T09:47:25;4.38;;;0.60;;
72060;SDS011;59925;52.136;5.420;2023-04-25T09:49:53;4.30;;;0.53;;
72060;SDS011;59925;52.136;5.420;2023-04-25T09:52:20;3.08;;;0.65;;
72060;SDS011;59925;52.136;5.420;2023-04-25T09:54:51;3.20;;;0.30;;
72060;SDS011;59925;52.136;5.420;2023-04-25T09:57:21;6.78;;;0.50;;
72060;SDS011;59925;52.136;5.420;2023-04-25T09:59:52;3.03;;;0.40;;
72060;SDS011;59925;52.136;5.420;2023-04-25T10:02:21;1.93;;;0.30;;
72060;SDS011;59925;52.136;5.420;2023-04-25T10:04:50;1.98;;;0.45;;
72060;SDS011;59925;52.136;5.420;2023-04-25T10:07:19;4.10;;;0.30;;
72060;SDS011;59925;52.136;5.420;2023-04-25T10:09:48;5.80;;;0.65;;
72060;SDS011;59925;52.136;5.420;2023-04-25T10:12:17;2.72;;;0.40;;
72060;SDS011;59925;52.136;5.420;2023-04-25T10:14:44;3.93;;;0.40;;
72060;SDS011;59925;52.136;5.420;2023-04-25T10:17:12;4.40;;;0.60;;
72060;SDS011;59925;52.136;5.420;2023-04-25T10:19:40;3.92;;;0.40;;
72060;SDS011;59925;52.136;5.420;2023-04-25T10:24:39;3.25;;;0.63;;
72060;SDS011;59925;52.136;5.420;2023-04-25T10:27:06;5.03;;;0.60;;
72060;SDS011;59925;52.136;5.420;2023-04-25T10:29:33;4.45;;;0.50;;
72060;SDS011;59925;52.136;5.420;2023-04-25T10:31:59;2.45;;;0.38;;
72060;SDS011;59925;52.136;5.420;2023-04-25T10:34:39;3.97;;;0.60;;
72060;SDS011;59925;52.136;5.420;2023-04-25T10:37:12;2.58;;;0.55;;
72060;SDS011;59925;52.136;5.420;2023-04-25T10:39:40;4.37;;;0.40;;
72060;SDS011;59925;52.136;5.420;2023-04-25T10:42:09;3.05;;;0.40;;
72060;SDS011;59925;52.136;5.420;2023-04-25T10:44:39;3.72;;;1.10;;
72060;SDS011;59925;52.136;5.420;2023-04-25T10:47:06;5.07;;;0.77;;
72060;SDS011;59925;52.136;5.420;2023-04-25T10:49:37;3.50;;;0.63;;
72060;SDS011;59925;52.136;5.420;2023-04-25T10:52:11;3.07;;;0.50;;
72060;SDS011;59925;52.136;5.420;2023-04-25T10:54:53;4.97;;;0.70;;
72060;SDS011;59925;52.136;5.420;2023-04-25T11:00:07;4.15;;;0.50;;
72060;SDS011;59925;52.136;5.420;2023-04-25T11:02:37;2.75;;;0.63;;
72060;SDS011;59925;52.136;5.420;2023-04-25T11:05:09;4.83;;;0.40;;
72060;SDS011;59925;52.136;5.420;2023-04-25T11:08:10;2.60;;;0.90;;
72060;SDS011;59925;52.136;5.420;2023-04-25T11:10:34;5.15;;;0.60;;
72060;SDS011;59925;52.136;5.420;2023-04-25T11:13:03;3.22;;;0.75;;
72060;SDS011;59925;52.136;5.420;2023-04-25T11:15:30;4.10;;;0.80;;
72060;SDS011;59925;52.136;5.420;2023-04-25T11:17:57;3.50;;;0.70;;
72060;SDS011;59925;52.136;5.420;2023-04-25T11:20:25;3.50;;;0.65;;
72060;SDS011;59925;52.136;5.420;2023-04-25T11:22:52;4.55;;;0.75;;
72060;SDS011;59925;52.136;5.420;2023-04-25T11:25:18;3.60;;;0.50;;
72060;SDS011;59925;52.136;5.420;2023-04-25T11:30:20;3.53;;;0.50;;
72060;SDS011;59925;52.136;5.420;2023-04-25T11:32:47;3.60;;;0.57;;
72060;SDS011;59925;52.136;5.420;2023-04-25T11:35:14;5.15;;;0.50;;
72060;SDS011;59925;52.136;5.420;2023-04-25T11:37:41;3.88;;;0.50;;
72060;SDS011;59925;52.136;5.420;2023-04-25T11:40:09;5.07;;;0.70;;
72060;SDS011;59925;52.136;5.420;2023-04-25T11:42:38;2.43;;;0.40;;
72060;SDS011;59925;52.136;5.420;2023-04-25T11:45:12;6.68;;;0.95;;
72060;SDS011;59925;52.136;5.420;2023-04-25T11:47:39;5.90;;;0.90;;
72060;SDS011;59925;52.136;5.420;2023-04-25T11:50:06;2.47;;;0.65;;
72060;SDS011;59925;52.136;5.420;2023-04-25T11:55:04;3.30;;;0.50;;
72060;SDS011;59925;52.136;5.420;2023-04-25T11:57:35;4.82;;;1.05;;
72060;SDS011;59925;52.136;5.420;2023-04-25T12:00:13;3.42;;;0.50;;
72060;SDS011;59925;52.136;5.420;2023-04-25T12:02:45;3.47;;;0.90;;
72060;SDS011;59925;52.136;5.420;2023-04-25T12:05:19;5.18;;;0.90;;
72060;SDS011;59925;52.136;5.420;2023-04-25T12:07:52;5.13;;;0.50;;
72060;SDS011;59925;52.136;5.420;2023-04-25T12:10:18;3.67;;;0.68;;
72060;SDS011;59925;52.136;5.420;2023-04-25T12:12:45;4.70;;;0.47;;
72060;SDS011;59925;52.136;5.420;2023-04-25T12:15:16;2.33;;;0.52;;
72060;SDS011;59925;52.136;5.420;2023-04-25T12:17:46;3.65;;;0.55;;
72060;SDS011;59925;52.136;5.420;2023-04-25T12:20:14;2.97;;;0.50;;
72060;SDS011;59925;52.136;5.420;2023-04-25T12:22:42;4.90;;;0.60;;
72060;SDS011;59925;52.136;5.420;2023-04-25T12:25:11;4.22;;;0.75;;
72060;SDS011;59925;52.136;5.420;2023-04-25T12:27:39;3.53;;;0.63;;
72060;SDS011;59925;52.136;5.420;2023-04-25T12:30:08;3.97;;;0.52;;
72060;SDS011;59925;52.136;5.420;2023-04-25T12:32:34;3.23;;;0.50;;
72060;SDS011;59925;52.136;5.420;2023-04-25T12:35:01;2.85;;;0.40;;
72060;SDS011;59925;52.136;5.420;2023-04-25T12:37:28;2.85;;;0.45;;
72060;SDS011;59925;52.136;5.420;2023-04-25T12:39:55;2.08;;;0.40;;
72060;SDS011;59925;52.136;5.420;2023-04-25T12:42:21;4.65;;;0.40;;
72060;SDS011;59925;52.136;5.420;2023-04-25T12:44:47;2.83;;;0.60;;
72060;SDS011;59925;52.136;5.420;2023-04-25T12:47:14;2.50;;;0.30;;
72060;SDS011;59925;52.136;5.420;2023-04-25T12:49:40;2.53;;;0.40;;
72060;SDS011;59925;52.136;5.420;2023-04-25T12:52:07;1.77;;;0.40;;
72060;SDS011;59925;52.136;5.420;2023-04-25T12:54:33;4.38;;;0.75;;
72060;SDS011;59925;52.136;5.420;2023-04-25T12:57:00;3.80;;;0.90;;
72060;SDS011;59925;52.136;5.420;2023-04-25T12:59:28;3.90;;;0.45;;
72060;SDS011;59925;52.136;5.420;2023-04-25T13:01:55;3.35;;;0.38;;
72060;SDS011;59925;52.136;5.420;2023-04-25T13:04:21;2.50;;;0.35;;
72060;SDS011;59925;52.136;5.420;2023-04-25T13:06:48;4.43;;;0.82;;
72060;SDS011;59925;52.136;5.420;2023-04-25T13:09:15;3.20;;;0.47;;
72060;SDS011;59925;52.136;5.420;2023-04-25T13:11:41;2.75;;;0.43;;
72060;SDS011;59925;52.136;5.420;2023-04-25T13:14:08;2.10;;;0.47;;
72060;SDS011;59925;52.136;5.420;2023-04-25T13:16:34;4.00;;;0.40;;
72060;SDS011;59925;52.136;5.420;2023-04-25T13:19:01;7.53;;;0.60;;
72060;SDS011;59925;52.136;5.420;2023-04-25T13:21:29;2.97;;;0.50;;
72060;SDS011;59925;52.136;5.420;2023-04-25T13:23:56;4.43;;;0.73;;
72060;SDS011;59925;52.136;5.420;2023-04-25T13:26:23;4.20;;;0.50;;
72060;SDS011;59925;52.136;5.420;2023-04-25T13:28:50;2.28;;;0.40;;
72060;SDS011;59925;52.136;5.420;2023-04-25T13:31:16;2.42;;;0.70;;
72060;SDS011;59925;52.136;5.420;2023-04-25T13:33:43;4.90;;;0.40;;
72060;SDS011;59925;52.136;5.420;2023-04-25T13:36:09;4.85;;;0.47;;
72060;SDS011;59925;52.136;5.420;2023-04-25T13:38:36;3.67;;;0.45;;
72060;SDS011;59925;52.136;5.420;2023-04-25T13:41:02;2.03;;;0.60;;
72060;SDS011;59925;52.136;5.420;2023-04-25T13:43:29;2.92;;;0.40;;
72060;SDS011;59925;52.136;5.420;2023-04-25T13:45:55;3.77;;;0.50;;
72060;SDS011;59925;52.136;5.420;2023-04-25T13:48:22;3.63;;;0.60;;
72060;SDS011;59925;52.136;5.420;2023-04-25T13:50:50;2.65;;;0.60;;
72060;SDS011;59925;52.136;5.420;2023-04-25T13:53:16;2.03;;;0.57;;
72060;SDS011;59925;52.136;5.420;2023-04-25T13:55:43;2.65;;;0.45;;
72060;SDS011;59925;52.136;5.420;2023-04-25T13:58:09;5.03;;;0.70;;
72060;SDS011;59925;52.136;5.420;2023-04-25T14:00:36;3.47;;;0.60;;
72060;SDS011;59925;52.136;5.420;2023-04-25T14:03:09;6.13;;;0.70;;
72060;SDS011;59925;52.136;5.420;2023-04-25T14:05:36;3.78;;;0.40;;
72060;SDS011;59925;52.136;5.420;2023-04-25T14:08:07;6.03;;;0.60;;
72060;SDS011;59925;52.136;5.420;2023-04-25T14:10:35;3.47;;;0.70;;
72060;SDS011;59925;52.136;5.420;2023-04-25T14:13:02;2.88;;;0.60;;
72060;SDS011;59925;52.136;5.420;2023-04-25T14:15:32;5.05;;;0.57;;
72060;SDS011;59925;52.136;5.420;2023-04-25T14:17:59;1.50;;;0.40;;
72060;SDS011;59925;52.136;5.420;2023-04-25T14:20:27;2.45;;;0.70;;
72060;SDS011;59925;52.136;5.420;2023-04-25T14:22:53;3.00;;;0.60;;
72060;SDS011;59925;52.136;5.420;2023-04-25T14:25:22;4.07;;;0.50;;
72060;SDS011;59925;52.136;5.420;2023-04-25T14:27:48;1.90;;;0.50;;
72060;SDS011;59925;52.136;5.420;2023-04-25T14:30:16;3.33;;;0.40;;
72060;SDS011;59925;52.136;5.420;2023-04-25T14:32:45;2.72;;;0.50;;
72060;SDS011;59925;52.136;5.420;2023-04-25T14:35:11;1.77;;;0.50;;
72060;SDS011;59925;52.136;5.420;2023-04-25T14:37:38;1.92;;;0.50;;
72060;SDS011;59925;52.136;5.420;2023-04-25T14:40:05;3.10;;;0.55;;
72060;SDS011;59925;52.136;5.420;2023-04-25T14:42:34;4.60;;;0.55;;
72060;SDS011;59925;52.136;5.420;2023-04-25T14:45:02;2.30;;;0.43;;
72060;SDS011;59925;52.136;5.420;2023-04-25T14:47:29;1.73;;;0.30;;
72060;SDS011;59925;52.136;5.420;2023-04-25T14:49:56;1.25;;;0.50;;
72060;SDS011;59925;52.136;5.420;2023-04-25T14:52:22;2.33;;;0.50;;
72060;SDS011;59925;52.136;5.420;2023-04-25T14:54:49;5.53;;;0.55;;
72060;SDS011;59925;52.136;5.420;2023-04-25T14:57:15;4.07;;;0.52;;